Track Авдеев Виталий

Time Latitude Longitude Accuracy (66% radius in meters) Altitude (meters) Speed (km/hour) Bearing (degrees) Battery (%) GPS flag
06:46:28 57.205287 60.115394 0 0 0 0 1 delete
06:46:23 57.205452 60.115245 0 0 0 0 1 delete
06:46:17 57.205590 60.114994 0 0 0 0 1 delete
06:46:12 57.205699 60.114753 0 0 0 0 1 delete
06:46:05 57.205821 60.114501 0 0 0 0 1 delete
06:46:00 57.205920 60.114326 0 0 0 0 1 delete
06:45:56 57.206021 60.114203 0 0 0 0 1 delete
06:45:53 57.206104 60.114163 0 0 0 0 1 delete
06:45:52 57.206137 60.114212 0 0 0 0 1 delete
06:45:50 57.206211 60.114256 0 0 0 0 1 delete
06:45:47 57.206321 60.114342 0 0 0 0 1 delete
06:45:46 57.206344 60.114400 0 0 0 0 1 delete
06:45:43 57.206496 60.114358 0 0 0 0 1 delete
06:45:42 57.206541 60.114330 0 0 0 0 1 delete
06:45:40 57.206623 60.114319 0 0 0 0 1 delete
06:45:37 57.206771 60.114430 0 0 0 0 1 delete
06:45:35 57.206826 60.114606 0 0 0 0 1 delete
06:45:33 57.206817 60.114819 0 0 0 0 1 delete
06:45:32 57.206811 60.114901 0 0 0 0 1 delete
06:45:29 57.206888 60.115043 0 0 0 0 1 delete
06:45:27 57.206966 60.115093 0 0 0 0 1 delete
06:45:25 57.207058 60.115096 0 0 0 0 1 delete
06:45:22 57.207191 60.115087 0 0 0 0 1 delete
06:45:17 57.207317 60.115083 0 0 0 0 1 delete
06:45:11 57.207466 60.115162 0 0 0 0 1 delete
06:45:06 57.207570 60.115245 0 0 0 0 1 delete
06:45:02 57.207659 60.115264 0 0 0 0 1 delete
06:44:54 57.207723 60.115047 0 0 0 0 1 delete
06:44:47 57.207758 60.114864 0 0 0 0 1 delete
06:44:46 57.207763 60.114831 0 0 0 0 1 delete
06:44:43 57.207764 60.114747 0 0 0 0 1 delete
06:44:41 57.207775 60.114680 0 0 0 0 1 delete
06:44:40 57.207765 60.114642 0 0 0 0 1 delete
06:44:38 57.207789 60.114563 0 0 0 0 1 delete
06:44:36 57.207844 60.114542 0 0 0 0 1 delete
06:44:30 57.208005 60.114490 0 0 0 0 1 delete
06:44:25 57.208109 60.114375 0 0 0 0 1 delete
06:44:23 57.208148 60.114365 0 0 0 0 1 delete
06:44:21 57.208169 60.114361 0 0 0 0 1 delete
06:44:18 57.208269 60.114425 0 0 0 0 1 delete
06:44:17 57.208312 60.114507 0 0 0 0 1 delete
06:44:14 57.208300 60.114856 0 0 0 0 1 delete
06:44:13 57.208294 60.114963 0 0 0 0 1 delete
06:44:10 57.208372 60.115248 0 0 0 0 1 delete
06:44:06 57.208471 60.115508 0 0 0 0 1 delete
06:44:05 57.208485 60.115565 0 0 0 0 1 delete
06:44:03 57.208524 60.115673 0 0 0 0 1 delete
06:44:02 57.208548 60.115702 0 0 0 0 1 delete
06:43:58 57.208655 60.115818 0 0 0 0 1 delete
06:43:53 57.208824 60.116057 0 0 0 0 1 delete